EDT,Max TemperatureF,Mean TemperatureF,Min TemperatureF,Max Dew PointF,MeanDew PointF,Min DewpointF,Max Humidity, Mean Humidity, Min Humidity, Max Sea Level PressureIn, Mean Sea Level PressureIn, Min Sea Level PressureIn, Max VisibilityMiles, Mean VisibilityMiles, Min VisibilityMiles, Max Wind SpeedMPH, Mean Wind SpeedMPH, Max Gust SpeedMPH,PrecipitationIn, CloudCover, Events, WindDirDegrees
2011-10-1,75,68,62,67,64,61,96,90,73,29.73,29.63,29.57,10,7,1,12,5,21,0.12,6,Rain-Thunderstorm,134
2011-10-2,70,62,53,63,60,51,97,87,68,29.91,29.79,29.74,10,6,2,9,2,,0.07,6,Rain,4
2011-10-3,68,57,48,55,50,43,100,82,43,30.06,30.00,29.91,10,8,1,13,2,,0.08,4,Rain,139
2011-10-4,68,58,53,56,54,51,100,89,61,29.99,29.92,29.86,10,7,0,12,5,17,0.21,6,Fog-Rain,306
2011-10-5,66,56,45,54,46,34,94,71,47,30.23,29.98,29.86,10,10,10,17,6,23,0.01,2,Rain,317
2011-10-6,63,50,39,36,31,26,86,53,28,30.34,30.26,30.21,10,10,10,15,5,22,0.00,0,,314
2011-10-7,63,48,34,42,37,32,92,67,33,30.46,30.42,30.34,10,10,10,7,2,,0.00,0,,271
2011-10-8,78,62,46,57,50,43,93,72,42,30.43,30.38,30.33,10,10,9,7,4,,0.00,0,,238
2011-10-9,86,69,52,60,53,50,93,64,31,30.33,30.28,30.21,10,10,10,10,2,,0.00,0,,294
2011-10-10,84,68,55,62,56,51,90,64,39,30.21,30.14,30.08,10,10,9,9,2,,0.00,0,,312
2011-10-11,71,60,51,55,48,43,93,70,38,30.22,30.20,30.15,10,10,10,8,4,,0.00,0,,42
2011-10-12,62,56,51,57,52,47,100,83,64,30.22,30.14,30.02,10,8,2,12,5,,0.16,5,Rain,49
2011-10-13,68,64,59,66,61,57,100,95,88,30.00,29.83,29.74,10,3,1,12,6,,1.56,8,Rain,27
2011-10-14,72,66,60,68,64,59,100,95,83,29.78,29.56,29.37,10,4,0,17,7,24,0.80,8,Fog-Rain-Thunderstorm,146
2011-10-15,66,60,55,57,46,37,88,59,42,29.71,29.59,29.40,10,10,10,22,14,38,0.00,3,,230
2011-10-16,64,60,55,52,40,34,69,48,37,29.82,29.76,29.70,10,10,10,18,12,28,0.00,2,,240
2011-10-17,66,60,53,57,45,32,87,60,29,29.77,29.69,29.60,10,10,8,20,13,28,0.06,2,Rain,242
2011-10-18,68,58,48,50,43,35,93,64,31,29.95,29.85,29.75,10,10,10,15,5,,0.00,2,,222
2011-10-19,62,56,50,61,57,48,100,93,82,29.94,29.76,29.56,10,5,1,15,5,23,1.36,7,Rain,36
2011-10-20,71,66,60,69,59,44,97,81,55,29.70,29.54,29.47,10,6,1,29,11,41,0.83,7,Rain,204
2011-10-21,62,54,44,44,43,40,93,65,51,29.97,29.84,29.72,10,10,10,17,9,29,0.00,1,,230
2011-10-22,62,52,43,45,42,40,93,71,50,30.07,30.01,29.97,10,10,10,9,3,16,0.00,4,,266
2011-10-23,57,47,37,43,38,35,97,79,47,30.15,30.11,30.07,10,9,2,9,1,,0.00,2,,278
2011-10-24,61,48,35,46,40,33,100,83,57,30.15,30.09,29.94,10,7,2,12,1,17,0.00,1,,175
2011-10-25,60,52,46,50,40,33,89,65,38,29.99,29.92,29.87,10,10,10,17,8,30,0.01,2,Rain,286
2011-10-26,53,48,44,46,39,35,93,70,58,30.01,29.87,29.77,10,10,10,8,4,,0.00,7,Rain,17
2011-10-27,50,43,36,47,44,34,93,92,86,29.83,29.69,29.60,10,5,2,15,6,24,0.81,8,Rain,21
2011-10-28,48,40,33,34,28,19,93,68,32,30.26,30.10,29.86,10,10,10,9,6,21,0.00,1,,329
2011-10-29,46,40,35,39,35,30,93,83,63,30.26,29.98,29.60,10,6,2,28,7,38,0.92,7,Rain,33
2011-10-30,48,38,30,37,31,28,93,83,50,30.30,29.84,29.58,10,6,1,18,12,34,0.35,6,Rain-Snow,325
2011-10-31,52,40,27,35,30,25,96,75,41,30.41,30.38,30.31,10,9,3,8,1,,0.00,0,,173